Time,TemperatureF,DewpointF,PressureIn,WindDirection,WindDirectionDegrees,WindSpeedMPH,WindSpeedGustMPH,Humidity,HourlyPrecipIn,Conditions,Clouds,dailyrainin,SoftwareType,DateUTC
2015-08-02 00:04:00,67.8,63.1,29.95,South,180,0.0,0.0,85,0.00,,,0.00,VWS V15.00,2015-08-02 04:04:00,
2015-08-02 00:09:00,67.7,63.4,29.95,South,180,0.0,0.0,86,0.00,,,0.00,VWS V15.00,2015-08-02 04:09:00,
2015-08-02 00:14:00,67.5,62.8,29.95,South,180,0.0,0.0,85,0.00,,,0.00,VWS V15.00,2015-08-02 04:14:00,
2015-08-02 00:19:00,67.3,62.6,29.94,South,180,0.0,0.0,85,0.00,,,0.00,VWS V15.00,2015-08-02 04:19:00,
2015-08-02 00:24:00,67.1,62.1,29.95,South,180,0.0,0.0,84,0.00,,,0.00,VWS V15.00,2015-08-02 04:24:00,
2015-08-02 00:29:00,67.0,62.0,29.95,South,180,0.0,0.0,84,0.00,,,0.00,VWS V15.00,2015-08-02 04:29:00,
2015-08-02 00:34:00,66.9,62.2,29.95,South,180,0.0,0.0,85,0.00,,,0.00,VWS V15.00,2015-08-02 04:34:00,
2015-08-02 00:39:00,66.8,62.2,29.95,South,180,0.0,0.0,85,0.00,,,0.00,VWS V15.00,2015-08-02 04:39:00,
2015-08-02 00:44:00,66.7,62.4,29.95,South,180,0.0,0.0,86,0.00,,,0.00,VWS V15.00,2015-08-02 04:44:00,
2015-08-02 00:49:00,66.7,63.0,29.95,South,180,0.0,0.0,88,0.00,,,0.00,VWS V15.00,2015-08-02 04:49:00,
2015-08-02 00:54:00,66.6,62.9,29.95,South,180,0.0,0.0,88,0.00,,,0.00,VWS V15.00,2015-08-02 04:54:00,
2015-08-02 00:59:00,66.5,62.8,29.95,South,180,0.0,0.0,88,0.00,,,0.00,VWS V15.00,2015-08-02 04:59:00,
2015-08-02 01:04:00,66.3,62.6,29.95,South,180,0.0,0.0,88,0.00,,,0.00,VWS V15.00,2015-08-02 05:04:00,
2015-08-02 01:09:00,66.1,62.5,29.95,South,180,0.0,0.0,88,0.00,,,0.00,VWS V15.00,2015-08-02 05:09:00,
2015-08-02 01:14:00,65.9,62.2,29.95,South,180,0.0,0.0,88,0.00,,,0.00,VWS V15.00,2015-08-02 05:14:00,
2015-08-02 01:19:00,65.8,62.2,29.95,South,180,0.0,0.0,88,0.00,,,0.00,VWS V15.00,2015-08-02 05:19:00,
2015-08-02 01:24:00,65.8,62.2,29.95,South,180,0.0,0.0,88,0.00,,,0.00,VWS V15.00,2015-08-02 05:24:00,
2015-08-02 01:29:00,65.6,62.0,29.95,South,180,0.0,0.0,88,0.00,,,0.00,VWS V15.00,2015-08-02 05:29:00,
2015-08-02 01:34:00,65.6,62.3,29.95,South,180,0.0,0.0,89,0.00,,,0.00,VWS V15.00,2015-08-02 05:34:00,
2015-08-02 01:39:00,65.5,62.5,29.95,South,180,0.0,0.0,90,0.00,,,0.00,VWS V15.00,2015-08-02 05:39:00,
2015-08-02 01:44:00,65.5,62.5,29.95,South,180,0.0,0.0,90,0.00,,,0.00,VWS V15.00,2015-08-02 05:44:00,
2015-08-02 01:49:00,65.4,62.4,29.95,South,180,0.0,0.0,90,0.00,,,0.00,VWS V15.00,2015-08-02 05:49:00,
2015-08-02 01:54:00,65.3,62.3,29.95,South,180,0.0,0.0,90,0.00,,,0.00,VWS V15.00,2015-08-02 05:54:00,
2015-08-02 01:59:00,65.3,62.6,29.95,South,180,0.0,0.0,91,0.00,,,0.00,VWS V15.00,2015-08-02 05:59:00,
2015-08-02 02:04:00,65.2,62.5,29.95,South,180,0.0,0.0,91,0.00,,,0.00,VWS V15.00,2015-08-02 06:04:00,
2015-08-02 02:09:00,65.0,62.6,29.95,South,180,0.0,0.0,92,0.00,,,0.00,VWS V15.00,2015-08-02 06:09:00,
2015-08-02 02:14:00,65.0,62.6,29.94,South,180,0.0,0.0,92,0.00,,,0.00,VWS V15.00,2015-08-02 06:14:00,
2015-08-02 02:19:00,64.9,62.5,29.94,South,180,0.0,0.0,92,0.00,,,0.00,VWS V15.00,2015-08-02 06:19:00,
2015-08-02 02:24:00,64.8,62.4,29.95,South,180,0.0,0.0,92,0.00,,,0.00,VWS V15.00,2015-08-02 06:24:00,
2015-08-02 02:29:00,64.7,62.3,29.95,South,180,0.0,0.0,92,0.00,,,0.00,VWS V15.00,2015-08-02 06:29:00,
2015-08-02 02:34:00,64.5,62.1,29.95,South,180,0.0,0.0,92,0.00,,,0.00,VWS V15.00,2015-08-02 06:34:00,
2015-08-02 02:39:00,64.5,62.1,29.95,South,180,0.0,0.0,92,0.00,,,0.00,VWS V15.00,2015-08-02 06:39:00,
2015-08-02 02:44:00,64.4,62.3,29.95,South,180,0.0,0.0,93,0.00,,,0.00,VWS V15.00,2015-08-02 06:44:00,
2015-08-02 02:49:00,64.4,62.3,29.95,South,180,0.0,0.0,93,0.00,,,0.00,VWS V15.00,2015-08-02 06:49:00,
2015-08-02 02:54:00,64.3,62.2,29.95,South,180,0.0,0.0,93,0.00,,,0.00,VWS V15.00,2015-08-02 06:54:00,
2015-08-02 02:59:00,64.3,62.2,29.95,South,180,0.0,0.0,93,0.00,,,0.00,VWS V15.00,2015-08-02 06:59:00,
2015-08-02 03:04:00,64.1,62.0,29.95,South,180,0.0,0.0,93,0.00,,,0.00,VWS V15.00,2015-08-02 07:04:00,
2015-08-02 03:09:00,64.1,62.0,29.95,South,180,0.0,0.0,93,0.00,,,0.00,VWS V15.00,2015-08-02 07:09:00,
2015-08-02 03:14:00,64.1,62.0,29.95,South,180,0.0,0.0,93,0.00,,,0.00,VWS V15.00,2015-08-02 07:14:00,
2015-08-02 03:19:00,64.1,62.3,29.95,South,180,0.0,0.0,94,0.00,,,0.00,VWS V15.00,2015-08-02 07:19:00,
2015-08-02 03:24:00,64.1,62.3,29.95,South,180,0.0,0.0,94,0.00,,,0.00,VWS V15.00,2015-08-02 07:24:00,
2015-08-02 03:29:00,64.2,62.4,29.95,South,180,0.0,0.0,94,0.00,,,0.00,VWS V15.00,2015-08-02 07:29:00,
2015-08-02 03:34:00,64.3,62.5,29.95,South,180,0.0,0.0,94,0.00,,,0.00,VWS V15.00,2015-08-02 07:34:00,
2015-08-02 03:39:00,64.3,62.5,29.95,South,180,0.0,0.0,94,0.00,,,0.00,VWS V15.00,2015-08-02 07:39:00,
2015-08-02 03:44:00,64.2,62.4,29.94,South,180,0.0,0.0,94,0.00,,,0.00,VWS V15.00,2015-08-02 07:44:00,
2015-08-02 03:49:00,64.0,62.2,29.94,South,180,0.0,0.0,94,0.00,,,0.00,VWS V15.00,2015-08-02 07:49:00,
2015-08-02 03:54:00,63.9,62.1,29.94,South,180,0.0,0.0,94,0.00,,,0.00,VWS V15.00,2015-08-02 07:54:00,
2015-08-02 03:59:00,63.7,62.0,29.94,South,180,0.0,0.0,94,0.00,,,0.00,VWS V15.00,2015-08-02 07:59:00,
2015-08-02 04:04:00,63.7,62.0,29.94,South,180,0.0,0.0,94,0.00,,,0.00,VWS V15.00,2015-08-02 08:04:00,
2015-08-02 04:09:00,63.6,61.8,29.94,South,180,0.0,0.0,94,0.00,,,0.00,VWS V15.00,2015-08-02 08:09:00,
2015-08-02 04:14:00,63.6,61.8,29.94,South,180,0.0,0.0,94,0.00,,,0.00,VWS V15.00,2015-08-02 08:14:00,
2015-08-02 04:20:00,63.7,62.0,29.94,South,180,0.0,0.0,94,0.00,,,0.00,VWS V15.00,2015-08-02 08:20:00,
2015-08-02 04:25:00,63.6,61.8,29.94,South,180,0.0,0.0,94,0.00,,,0.00,VWS V15.00,2015-08-02 08:25:00,
2015-08-02 04:30:00,63.6,61.8,29.94,South,180,0.0,0.0,94,0.00,,,0.00,VWS V15.00,2015-08-02 08:30:00,
2015-08-02 04:35:00,63.7,62.0,29.94,South,180,0.0,0.0,94,0.00,,,0.00,VWS V15.00,2015-08-02 08:35:00,
2015-08-02 04:40:00,63.7,62.0,29.94,South,180,0.0,0.0,94,0.00,,,0.00,VWS V15.00,2015-08-02 08:40:00,
2015-08-02 04:45:00,63.6,61.8,29.94,South,180,0.0,0.0,94,0.00,,,0.00,VWS V15.00,2015-08-02 08:45:00,
2015-08-02 04:50:00,63.6,61.8,29.94,South,180,0.0,0.0,94,0.00,,,0.00,VWS V15.00,2015-08-02 08:50:00,
2015-08-02 04:55:00,63.5,61.8,29.93,South,180,0.0,0.0,94,0.00,,,0.00,VWS V15.00,2015-08-02 08:55:00,
2015-08-02 05:00:00,63.4,61.7,29.93,South,180,0.0,0.0,94,0.00,,,0.00,VWS V15.00,2015-08-02 09:00:00,
2015-08-02 05:05:00,63.4,61.7,29.93,South,180,0.0,0.0,94,0.00,,,0.00,VWS V15.00,2015-08-02 09:05:00,
2015-08-02 05:10:00,63.3,61.5,29.93,South,180,0.0,0.0,94,0.00,,,0.00,VWS V15.00,2015-08-02 09:10:00,
2015-08-02 05:15:00,63.2,61.5,29.93,South,180,0.0,0.0,94,0.00,,,0.00,VWS V15.00,2015-08-02 09:15:00,
2015-08-02 05:20:00,63.2,61.5,29.93,South,180,0.0,0.0,94,0.00,,,0.00,VWS V15.00,2015-08-02 09:20:00,
2015-08-02 05:25:00,63.2,61.5,29.93,South,180,0.0,0.0,94,0.00,,,0.00,VWS V15.00,2015-08-02 09:25:00,
2015-08-02 05:30:00,63.2,61.5,29.93,South,180,0.0,0.0,94,0.00,,,0.00,VWS V15.00,2015-08-02 09:30:00,
2015-08-02 05:35:00,63.1,61.3,29.93,South,180,0.0,0.0,94,0.00,,,0.00,VWS V15.00,2015-08-02 09:35:00,
2015-08-02 05:40:00,63.1,61.3,29.93,South,180,0.0,0.0,94,0.00,,,0.00,VWS V15.00,2015-08-02 09:40:00,
2015-08-02 05:45:00,63.0,61.2,29.93,South,180,0.0,0.0,94,0.00,,,0.00,VWS V15.00,2015-08-02 09:45:00,
2015-08-02 05:50:00,62.9,61.5,29.93,South,180,0.0,0.0,95,0.00,,,0.00,VWS V15.00,2015-08-02 09:50:00,
2015-08-02 05:55:00,62.8,61.3,29.93,South,180,0.0,0.0,95,0.00,,,0.00,VWS V15.00,2015-08-02 09:55:00,
2015-08-02 06:00:00,62.7,61.0,29.93,South,180,0.0,0.0,94,0.00,,,0.00,VWS V15.00,2015-08-02 10:00:00,
2015-08-02 06:05:00,62.6,60.8,29.93,South,180,0.0,0.0,94,0.00,,,0.00,VWS V15.00,2015-08-02 10:05:00,
2015-08-02 06:10:00,62.6,61.2,29.93,South,180,0.0,0.0,95,0.00,,,0.00,VWS V15.00,2015-08-02 10:10:00,
2015-08-02 06:15:00,62.6,61.2,29.93,South,180,0.0,0.0,95,0.00,,,0.00,VWS V15.00,2015-08-02 10:15:00,
2015-08-02 06:20:00,62.5,61.0,29.93,South,180,0.0,0.0,95,0.00,,,0.00,VWS V15.00,2015-08-02 10:20:00,
2015-08-02 06:25:00,62.5,61.0,29.93,South,180,0.0,0.0,95,0.00,,,0.00,VWS V15.00,2015-08-02 10:25:00,
2015-08-02 06:30:00,62.4,61.0,29.93,South,180,0.0,0.0,95,0.00,,,0.00,VWS V15.00,2015-08-02 10:30:00,
2015-08-02 06:35:00,62.4,61.0,29.93,South,180,0.0,0.0,95,0.00,,,0.00,VWS V15.00,2015-08-02 10:35:00,
2015-08-02 06:40:00,62.4,61.0,29.93,South,180,0.0,0.0,95,0.00,,,0.00,VWS V15.00,2015-08-02 10:40:00,
2015-08-02 06:45:00,62.3,60.8,29.93,South,180,0.0,0.0,95,0.00,,,0.00,VWS V15.00,2015-08-02 10:45:00,
2015-08-02 06:50:00,62.2,60.8,29.93,South,180,0.0,0.0,95,0.00,,,0.00,VWS V15.00,2015-08-02 10:50:00,
2015-08-02 06:55:00,62.2,60.8,29.93,South,180,0.0,0.0,95,0.00,,,0.00,VWS V15.00,2015-08-02 10:55:00,
2015-08-02 07:00:00,62.2,60.8,29.93,South,180,0.0,0.0,95,0.00,,,0.00,VWS V15.00,2015-08-02 11:00:00,
2015-08-02 07:05:00,62.2,60.8,29.93,South,180,0.0,0.0,95,0.00,,,0.00,VWS V15.00,2015-08-02 11:05:00,
2015-08-02 07:10:00,62.3,61.2,29.93,South,180,0.0,0.0,96,0.00,,,0.00,VWS V15.00,2015-08-02 11:10:00,
2015-08-02 07:15:00,62.3,61.2,29.93,South,180,0.0,0.0,96,0.00,,,0.00,VWS V15.00,2015-08-02 11:15:00,
2015-08-02 07:20:00,62.3,61.2,29.93,South,180,0.0,0.0,96,0.00,,,0.00,VWS V15.00,2015-08-02 11:20:00,
2015-08-02 07:25:00,62.6,61.5,29.93,South,180,0.0,0.0,96,0.00,,,0.00,VWS V15.00,2015-08-02 11:25:00,
2015-08-02 07:30:00,62.8,61.7,29.93,South,180,0.0,0.0,96,0.00,,,0.00,VWS V15.00,2015-08-02 11:30:00,
2015-08-02 07:35:00,63.2,62.0,29.93,South,180,0.0,0.0,96,0.00,,,0.00,VWS V15.00,2015-08-02 11:35:00,
2015-08-02 07:40:00,63.8,62.6,29.94,South,180,0.0,0.0,96,0.00,,,0.00,VWS V15.00,2015-08-02 11:40:00,
2015-08-02 07:45:00,64.2,63.0,29.94,South,180,0.0,0.0,96,0.00,,,0.00,VWS V15.00,2015-08-02 11:45:00,
2015-08-02 07:50:00,64.6,63.1,29.94,South,180,0.0,0.0,95,0.00,,,0.00,VWS V15.00,2015-08-02 11:50:00,
2015-08-02 07:55:00,64.9,63.1,29.94,South,180,0.0,0.0,94,0.00,,,0.00,VWS V15.00,2015-08-02 11:55:00,
2015-08-02 08:00:00,65.3,63.5,29.94,South,180,0.0,0.0,94,0.00,,,0.00,VWS V15.00,2015-08-02 12:00:00,
2015-08-02 08:05:00,65.8,63.7,29.94,South,180,0.0,0.0,93,0.00,,,0.00,VWS V15.00,2015-08-02 12:05:00,
2015-08-02 08:10:00,66.2,63.8,29.94,South,180,0.0,0.0,92,0.00,,,0.00,VWS V15.00,2015-08-02 12:10:00,
2015-08-02 08:15:00,66.6,63.9,29.94,South,180,0.0,0.0,91,0.00,,,0.00,VWS V15.00,2015-08-02 12:15:00,
2015-08-02 08:20:00,66.9,63.9,29.94,South,180,0.0,1.0,90,0.00,,,0.00,VWS V15.00,2015-08-02 12:20:00,
2015-08-02 08:25:00,67.4,64.1,29.94,South,180,0.0,1.0,89,0.00,,,0.00,VWS V15.00,2015-08-02 12:25:00,
2015-08-02 08:30:00,68.0,64.3,29.94,South,180,0.0,0.0,88,0.00,,,0.00,VWS V15.00,2015-08-02 12:30:00,
2015-08-02 08:36:00,68.4,64.1,29.95,South,180,0.0,0.0,86,0.00,,,0.00,VWS V15.00,2015-08-02 12:36:00,
2015-08-02 08:41:00,69.0,65.0,29.95,South,180,0.0,0.0,87,0.00,,,0.00,VWS V15.00,2015-08-02 12:41:00,
2015-08-02 08:46:00,69.5,65.1,29.95,South,180,0.0,1.0,86,0.00,,,0.00,VWS V15.00,2015-08-02 12:46:00,
2015-08-02 08:51:00,70.1,65.4,29.95,South,180,0.0,1.0,85,0.00,,,0.00,VWS V15.00,2015-08-02 12:51:00,
2015-08-02 08:56:00,70.6,65.9,29.95,South,180,0.0,1.0,85,0.00,,,0.00,VWS V15.00,2015-08-02 12:56:00,
2015-08-02 09:01:00,71.1,65.0,29.95,SW,219,0.0,2.0,81,0.00,,,0.00,VWS V15.00,2015-08-02 13:01:00,
2015-08-02 09:06:00,71.4,64.2,29.95,SW,219,0.0,2.0,78,0.00,,,0.00,VWS V15.00,2015-08-02 13:06:00,
2015-08-02 09:11:00,71.6,64.4,29.95,SW,219,0.0,1.0,78,0.00,,,0.00,VWS V15.00,2015-08-02 13:11:00,
2015-08-02 09:16:00,71.9,64.3,29.95,SW,219,0.0,1.0,77,0.00,,,0.00,VWS V15.00,2015-08-02 13:16:00,
2015-08-02 09:21:00,72.2,64.2,29.95,SW,219,0.0,1.0,76,0.00,,,0.00,VWS V15.00,2015-08-02 13:21:00,
2015-08-02 09:26:00,72.6,64.6,29.95,SW,219,0.0,1.0,76,0.00,,,0.00,VWS V15.00,2015-08-02 13:26:00,
2015-08-02 09:31:00,73.1,64.7,29.95,SW,219,0.0,0.0,75,0.00,,,0.00,VWS V15.00,2015-08-02 13:31:00,
2015-08-02 09:36:00,73.7,64.9,29.95,SW,219,0.0,1.0,74,0.00,,,0.00,VWS V15.00,2015-08-02 13:36:00,
2015-08-02 09:41:00,74.2,65.0,29.95,SW,219,0.0,0.0,73,0.00,,,0.00,VWS V15.00,2015-08-02 13:41:00,
2015-08-02 09:46:00,74.7,64.7,29.95,SW,219,0.0,1.0,71,0.00,,,0.00,VWS V15.00,2015-08-02 13:46:00,
2015-08-02 09:51:00,75.0,64.6,29.95,SW,219,0.0,1.0,70,0.00,,,0.00,VWS V15.00,2015-08-02 13:51:00,
2015-08-02 09:56:00,75.3,64.4,29.95,SW,219,1.0,1.0,69,0.00,,,0.00,VWS V15.00,2015-08-02 13:56:00,
2015-08-02 10:01:00,75.7,64.4,29.95,SW,219,0.0,1.0,68,0.00,,,0.00,VWS V15.00,2015-08-02 14:01:00,
2015-08-02 10:06:00,76.0,65.5,29.95,SW,219,0.0,1.0,70,0.00,,,0.00,VWS V15.00,2015-08-02 14:06:00,
2015-08-02 10:11:00,76.3,65.4,29.95,SW,219,0.0,1.0,69,0.00,,,0.00,VWS V15.00,2015-08-02 14:11:00,
2015-08-02 10:16:00,76.7,65.8,29.95,SW,219,0.0,1.0,69,0.00,,,0.00,VWS V15.00,2015-08-02 14:16:00,
2015-08-02 10:21:00,77.0,66.9,29.95,SW,219,0.0,1.0,71,0.00,,,0.00,VWS V15.00,2015-08-02 14:21:00,
2015-08-02 10:26:00,77.4,66.9,29.95,SW,219,0.0,1.0,70,0.00,,,0.00,VWS V15.00,2015-08-02 14:26:00,
2015-08-02 10:31:00,77.7,66.7,29.95,SW,219,0.0,1.0,69,0.00,,,0.00,VWS V15.00,2015-08-02 14:31:00,
2015-08-02 10:36:00,78.0,67.0,29.95,SW,219,0.0,1.0,69,0.00,,,0.00,VWS V15.00,2015-08-02 14:36:00,
2015-08-02 10:41:00,78.1,67.1,29.95,SW,220,0.0,1.0,69,0.00,,,0.00,VWS V15.00,2015-08-02 14:41:00,
2015-08-02 10:46:00,78.2,67.6,29.95,WSW,240,0.0,2.0,70,0.00,,,0.00,VWS V15.00,2015-08-02 14:46:00,
2015-08-02 10:51:00,78.3,67.3,29.95,WSW,240,0.0,1.0,69,0.00,,,0.00,VWS V15.00,2015-08-02 14:51:00,
2015-08-02 10:56:00,78.4,66.6,29.95,WSW,238,0.0,1.0,67,0.00,,,0.00,VWS V15.00,2015-08-02 14:56:00,
2015-08-02 11:01:00,78.7,66.8,29.95,WSW,239,1.0,2.0,67,0.00,,,0.00,VWS V15.00,2015-08-02 15:01:00,
2015-08-02 11:06:00,78.7,65.5,29.95,WSW,239,0.0,2.0,64,0.00,,,0.00,VWS V15.00,2015-08-02 15:06:00,
2015-08-02 11:11:00,79.1,66.3,29.95,WSW,239,0.0,1.0,65,0.00,,,0.00,VWS V15.00,2015-08-02 15:11:00,
2015-08-02 11:16:00,79.2,66.9,29.95,WSW,239,1.0,3.0,66,0.00,,,0.00,VWS V15.00,2015-08-02 15:16:00,
2015-08-02 11:21:00,79.5,67.6,29.95,SSW,200,0.0,1.0,67,0.00,,,0.00,VWS V15.00,2015-08-02 15:21:00,
2015-08-02 11:26:00,79.9,66.7,29.95,SSW,205,0.0,3.0,64,0.00,,,0.00,VWS V15.00,2015-08-02 15:26:00,
2015-08-02 11:31:00,80.1,66.8,29.95,SSW,205,0.0,1.0,64,0.00,,,0.00,VWS V15.00,2015-08-02 15:31:00,
2015-08-02 11:36:00,80.3,66.6,29.95,SSW,201,0.0,1.0,63,0.00,,,0.00,VWS V15.00,2015-08-02 15:36:00,
2015-08-02 11:41:00,80.5,66.3,29.95,WSW,257,0.0,4.0,62,0.00,,,0.00,VWS V15.00,2015-08-02 15:41:00,
2015-08-02 11:46:00,80.5,67.2,29.95,WSW,254,0.0,4.0,64,0.00,,,0.00,VWS V15.00,2015-08-02 15:46:00,
2015-08-02 11:51:00,80.7,66.5,29.95,WSW,254,0.0,1.0,62,0.00,,,0.00,VWS V15.00,2015-08-02 15:51:00,
2015-08-02 11:56:00,80.8,66.1,29.94,WSW,251,0.0,1.0,61,0.00,,,0.00,VWS V15.00,2015-08-02 15:56:00,
2015-08-02 12:01:00,81.1,67.3,29.94,WSW,249,0.0,1.0,63,0.00,,,0.00,VWS V15.00,2015-08-02 16:01:00,
2015-08-02 12:06:00,81.3,65.6,29.94,WSW,247,0.0,1.0,59,0.00,,,0.00,VWS V15.00,2015-08-02 16:06:00,
2015-08-02 12:11:00,81.5,66.3,29.94,WSW,238,2.0,4.0,60,0.00,,,0.00,VWS V15.00,2015-08-02 16:11:00,
2015-08-02 12:16:00,81.3,65.1,29.95,WSW,238,0.0,4.0,58,0.00,,,0.00,VWS V15.00,2015-08-02 16:16:00,
2015-08-02 12:21:00,81.4,65.2,29.94,SW,236,0.0,4.0,58,0.00,,,0.00,VWS V15.00,2015-08-02 16:21:00,
2015-08-02 12:26:00,81.5,66.8,29.94,WSW,242,0.0,4.0,61,0.00,,,0.00,VWS V15.00,2015-08-02 16:26:00,
2015-08-02 12:31:00,81.8,65.6,29.94,SSE,164,0.0,4.0,58,0.00,,,0.00,VWS V15.00,2015-08-02 16:31:00,
2015-08-02 12:36:00,82.0,65.8,29.94,South,173,0.0,4.0,58,0.00,,,0.00,VWS V15.00,2015-08-02 16:36:00,
2015-08-02 12:41:00,82.0,65.8,29.94,SW,215,0.0,2.0,58,0.00,,,0.00,VWS V15.00,2015-08-02 16:41:00,
2015-08-02 12:46:00,82.1,65.4,29.94,SSE,161,0.0,4.0,57,0.00,,,0.00,VWS V15.00,2015-08-02 16:46:00,
2015-08-02 12:51:00,82.4,65.7,29.94,SSW,209,3.0,3.0,57,0.00,,,0.00,VWS V15.00,2015-08-02 16:51:00,
2015-08-02 12:56:00,82.7,65.9,29.94,SSW,209,0.0,3.0,57,0.00,,,0.00,VWS V15.00,2015-08-02 16:56:00,
2015-08-02 13:02:00,83.1,65.3,29.94,SSW,192,0.0,2.0,55,0.00,,,0.00,VWS V15.00,2015-08-02 17:02:00,
2015-08-02 13:07:00,83.4,65.6,29.94,SW,228,0.0,3.0,55,0.00,,,0.00,VWS V15.00,2015-08-02 17:07:00,
2015-08-02 13:12:00,83.6,64.7,29.93,WSW,244,2.0,4.0,53,0.00,,,0.00,VWS V15.00,2015-08-02 17:12:00,
2015-08-02 13:17:00,83.3,65.5,29.93,WSW,243,0.0,5.0,55,0.00,,,0.00,VWS V15.00,2015-08-02 17:17:00,
2015-08-02 13:22:00,83.3,66.0,29.93,SW,230,1.0,1.0,56,0.00,,,0.00,VWS V15.00,2015-08-02 17:22:00,
2015-08-02 13:27:00,83.4,64.0,29.93,West,264,0.0,6.0,52,0.00,,,0.00,VWS V15.00,2015-08-02 17:27:00,
2015-08-02 13:32:00,83.5,65.1,29.93,West,259,0.0,1.0,54,0.00,,,0.00,VWS V15.00,2015-08-02 17:32:00,
2015-08-02 13:37:00,83.6,65.7,29.93,West,259,0.0,1.0,55,0.00,,,0.00,VWS V15.00,2015-08-02 17:37:00,
2015-08-02 13:42:00,83.8,63.8,29.93,WNW,286,0.0,5.0,51,0.00,,,0.00,VWS V15.00,2015-08-02 17:42:00,
2015-08-02 13:47:00,83.9,66.0,29.93,WSW,238,2.0,5.0,55,0.00,,,0.00,VWS V15.00,2015-08-02 17:47:00,
2015-08-02 13:52:00,83.9,66.0,29.93,WSW,245,0.0,1.0,55,0.00,,,0.00,VWS V15.00,2015-08-02 17:52:00,
2015-08-02 13:57:00,84.0,65.1,29.93,WSW,245,0.0,1.0,53,0.00,,,0.00,VWS V15.00,2015-08-02 17:57:00,
2015-08-02 14:02:00,84.2,64.7,29.93,WSW,249,3.0,4.0,52,0.00,,,0.00,VWS V15.00,2015-08-02 18:02:00,
2015-08-02 14:07:00,84.2,64.1,29.93,SW,220,0.0,4.0,51,0.00,,,0.00,VWS V15.00,2015-08-02 18:07:00,
2015-08-02 14:12:00,84.1,65.1,29.92,West,277,0.0,1.0,53,0.00,,,0.00,VWS V15.00,2015-08-02 18:12:00,
2015-08-02 14:17:00,84.4,64.9,29.93,WNW,284,0.0,3.0,52,0.00,,,0.00,VWS V15.00,2015-08-02 18:17:00,
2015-08-02 14:22:00,84.6,66.1,29.92,ESE,120,0.0,6.0,54,0.00,,,0.00,VWS V15.00,2015-08-02 18:22:00,
2015-08-02 14:27:00,84.7,65.1,29.92,SW,231,4.0,6.0,52,0.00,,,0.00,VWS V15.00,2015-08-02 18:27:00,
2015-08-02 14:32:00,84.8,64.7,29.92,WNW,297,0.0,5.0,51,0.00,,,0.00,VWS V15.00,2015-08-02 18:32:00,
2015-08-02 14:37:00,84.7,64.0,29.92,West,263,0.0,6.0,50,0.00,,,0.00,VWS V15.00,2015-08-02 18:37:00,
2015-08-02 14:42:00,84.6,65.1,29.92,WSW,250,0.0,5.0,52,0.00,,,0.00,VWS V15.00,2015-08-02 18:42:00,
2015-08-02 14:47:00,84.6,64.5,29.92,WSW,248,0.0,5.0,51,0.00,,,0.00,VWS V15.00,2015-08-02 18:47:00,
2015-08-02 14:52:00,84.7,65.1,29.92,WSW,252,1.0,2.0,52,0.00,,,0.00,VWS V15.00,2015-08-02 18:52:00,
2015-08-02 14:57:00,84.8,64.1,29.92,West,272,0.0,7.0,50,0.00,,,0.00,VWS V15.00,2015-08-02 18:57:00,
2015-08-02 15:02:00,84.8,65.2,29.92,WNW,291,1.0,4.0,52,0.00,,,0.00,VWS V15.00,2015-08-02 19:02:00,
2015-08-02 15:07:00,84.9,64.8,29.91,West,267,0.0,5.0,51,0.00,,,0.00,VWS V15.00,2015-08-02 19:07:00,
2015-08-02 15:12:00,85.1,64.4,29.91,West,259,0.0,1.0,50,0.00,,,0.00,VWS V15.00,2015-08-02 19:12:00,
2015-08-02 15:17:00,85.3,65.7,29.91,WSW,258,0.0,4.0,52,0.00,,,0.00,VWS V15.00,2015-08-02 19:17:00,
2015-08-02 15:22:00,85.5,65.3,29.91,WSW,254,0.0,7.0,51,0.00,,,0.00,VWS V15.00,2015-08-02 19:22:00,
2015-08-02 15:27:00,85.7,67.2,29.91,WSW,254,0.0,7.0,54,0.00,,,0.00,VWS V15.00,2015-08-02 19:27:00,
2015-08-02 15:32:00,86.0,64.6,29.91,WSW,244,0.0,2.0,49,0.00,,,0.00,VWS V15.00,2015-08-02 19:32:00,
2015-08-02 15:37:00,86.3,65.5,29.90,SW,221,0.0,4.0,50,0.00,,,0.00,VWS V15.00,2015-08-02 19:37:00,
2015-08-02 15:42:00,86.4,65.6,29.90,South,188,0.0,3.0,50,0.00,,,0.00,VWS V15.00,2015-08-02 19:42:00,
2015-08-02 15:47:00,86.5,65.1,29.90,SW,236,4.0,6.0,49,0.00,,,0.00,VWS V15.00,2015-08-02 19:47:00,
2015-08-02 15:52:00,86.3,64.9,29.90,SSW,212,0.0,4.0,49,0.00,,,0.00,VWS V15.00,2015-08-02 19:52:00,
2015-08-02 15:57:00,86.2,64.2,29.90,SSW,210,0.0,4.0,48,0.00,,,0.00,VWS V15.00,2015-08-02 19:57:00,
2015-08-02 16:02:00,86.3,65.5,29.90,SSW,212,0.0,1.0,50,0.00,,,0.00,VWS V15.00,2015-08-02 20:02:00,
2015-08-02 16:07:00,86.3,65.5,29.90,SSW,195,0.0,1.0,50,0.00,,,0.00,VWS V15.00,2015-08-02 20:07:00,
2015-08-02 16:12:00,86.5,64.5,29.90,WSW,238,1.0,3.0,48,0.00,,,0.00,VWS V15.00,2015-08-02 20:12:00,
2015-08-02 16:17:00,86.6,64.6,29.90,WSW,240,2.0,4.0,48,0.00,,,0.00,VWS V15.00,2015-08-02 20:17:00,
2015-08-02 16:22:00,86.6,64.6,29.89,SW,235,0.0,2.0,48,0.00,,,0.00,VWS V15.00,2015-08-02 20:22:00,
2015-08-02 16:27:00,86.6,64.6,29.89,WSW,240,0.0,4.0,48,0.00,,,0.00,VWS V15.00,2015-08-02 20:27:00,
2015-08-02 16:32:00,86.5,64.5,29.89,WSW,240,0.0,2.0,48,0.00,,,0.00,VWS V15.00,2015-08-02 20:32:00,
2015-08-02 16:37:00,86.7,65.9,29.89,WSW,254,1.0,4.0,50,0.00,,,0.00,VWS V15.00,2015-08-02 20:37:00,
2015-08-02 16:42:00,86.8,64.2,29.89,WSW,248,0.0,5.0,47,0.00,,,0.00,VWS V15.00,2015-08-02 20:42:00,
2015-08-02 16:47:00,86.8,64.8,29.88,WSW,257,0.0,5.0,48,0.00,,,0.00,VWS V15.00,2015-08-02 20:47:00,
2015-08-02 16:52:00,86.9,64.9,29.88,WSW,254,0.0,4.0,48,0.00,,,0.00,VWS V15.00,2015-08-02 20:52:00,
2015-08-02 16:57:00,87.0,65.0,29.88,SSW,209,0.0,4.0,48,0.00,,,0.00,VWS V15.00,2015-08-02 20:57:00,
2015-08-02 17:02:00,87.1,65.1,29.88,WSW,244,0.0,4.0,48,0.00,,,0.00,VWS V15.00,2015-08-02 21:02:00,
2015-08-02 17:07:00,87.0,65.0,29.88,SW,236,4.0,5.0,48,0.00,,,0.00,VWS V15.00,2015-08-02 21:07:00,
2015-08-02 17:12:00,86.9,64.9,29.88,WSW,250,0.0,4.0,48,0.00,,,0.00,VWS V15.00,2015-08-02 21:12:00,
2015-08-02 17:17:00,86.9,64.3,29.88,WSW,247,0.0,4.0,47,0.00,,,0.00,VWS V15.00,2015-08-02 21:17:00,
2015-08-02 17:22:00,86.7,64.1,29.88,WSW,245,0.0,1.0,47,0.00,,,0.00,VWS V15.00,2015-08-02 21:22:00,
2015-08-02 17:27:00,86.7,64.1,29.87,WSW,253,4.0,6.0,47,0.00,,,0.00,VWS V15.00,2015-08-02 21:27:00,
2015-08-02 17:32:00,86.6,64.0,29.87,WSW,245,0.0,5.0,47,0.00,,,0.00,VWS V15.00,2015-08-02 21:32:00,
2015-08-02 17:37:00,86.5,64.5,29.87,WSW,253,2.0,5.0,48,0.00,,,0.00,VWS V15.00,2015-08-02 21:37:00,
2015-08-02 17:43:00,86.4,64.4,29.87,SW,228,0.0,1.0,48,0.00,,,0.00,VWS V15.00,2015-08-02 21:43:00,
2015-08-02 17:48:00,86.5,64.5,29.87,SW,221,0.0,1.0,48,0.00,,,0.00,VWS V15.00,2015-08-02 21:48:00,
2015-08-02 17:53:00,86.4,64.4,29.87,South,191,0.0,4.0,48,0.00,,,0.00,VWS V15.00,2015-08-02 21:53:00,
2015-08-02 17:58:00,86.4,64.4,29.86,WSW,252,2.0,5.0,48,0.00,,,0.00,VWS V15.00,2015-08-02 21:58:00,
2015-08-02 18:03:00,86.4,64.4,29.86,WSW,250,0.0,4.0,48,0.00,,,0.00,VWS V15.00,2015-08-02 22:03:00,
2015-08-02 18:08:00,86.2,63.6,29.86,SW,227,0.0,4.0,47,0.00,,,0.00,VWS V15.00,2015-08-02 22:08:00,
2015-08-02 18:13:00,85.7,63.2,29.86,WSW,243,0.0,5.0,47,0.00,,,0.00,VWS V15.00,2015-08-02 22:13:00,
2015-08-02 18:18:00,85.5,64.2,29.86,WSW,242,0.0,5.0,49,0.00,,,0.00,VWS V15.00,2015-08-02 22:18:00,
2015-08-02 18:23:00,85.5,64.8,29.86,WSW,248,1.0,7.0,50,0.00,,,0.00,VWS V15.00,2015-08-02 22:23:00,
2015-08-02 18:28:00,85.4,64.1,29.86,WSW,248,0.0,7.0,49,0.00,,,0.00,VWS V15.00,2015-08-02 22:28:00,
2015-08-02 18:33:00,85.1,63.8,29.86,SW,225,0.0,2.0,49,0.00,,,0.00,VWS V15.00,2015-08-02 22:33:00,
2015-08-02 18:38:00,84.7,64.0,29.86,South,180,0.0,3.0,50,0.00,,,0.00,VWS V15.00,2015-08-02 22:38:00,
2015-08-02 18:43:00,84.3,64.2,29.86,WSW,244,1.0,3.0,51,0.00,,,0.00,VWS V15.00,2015-08-02 22:43:00,
2015-08-02 18:48:00,84.2,64.1,29.86,WSW,244,0.0,3.0,51,0.00,,,0.00,VWS V15.00,2015-08-02 22:48:00,
2015-08-02 18:53:00,84.3,65.3,29.86,WSW,244,0.0,1.0,53,0.00,,,0.00,VWS V15.00,2015-08-02 22:53:00,
2015-08-02 18:58:00,84.4,65.4,29.86,WSW,244,0.0,1.0,53,0.00,,,0.00,VWS V15.00,2015-08-02 22:58:00,
2015-08-02 19:03:00,84.4,65.4,29.86,WSW,244,0.0,0.0,53,0.00,,,0.00,VWS V15.00,2015-08-02 23:03:00,
2015-08-02 19:08:00,84.5,66.1,29.85,WSW,244,0.0,1.0,54,0.00,,,0.00,VWS V15.00,2015-08-02 23:08:00,
2015-08-02 19:13:00,84.4,65.4,29.85,WSW,242,0.0,1.0,53,0.00,,,0.00,VWS V15.00,2015-08-02 23:13:00,
2015-08-02 19:18:00,84.3,64.8,29.85,WSW,240,0.0,1.0,52,0.00,,,0.00,VWS V15.00,2015-08-02 23:18:00,
2015-08-02 19:23:00,84.2,65.2,29.85,WSW,240,0.0,1.0,53,0.00,,,0.00,VWS V15.00,2015-08-02 23:23:00,
2015-08-02 19:28:00,84.1,64.6,29.85,SW,215,0.0,1.0,52,0.00,,,0.00,VWS V15.00,2015-08-02 23:28:00,
2015-08-02 19:33:00,84.0,65.6,29.85,SW,218,0.0,4.0,54,0.00,,,0.00,VWS V15.00,2015-08-02 23:33:00,
2015-08-02 19:38:00,84.0,66.1,29.84,SW,218,0.0,4.0,55,0.00,,,0.00,VWS V15.00,2015-08-02 23:38:00,
2015-08-02 19:43:00,83.9,66.0,29.84,SW,218,0.0,1.0,55,0.00,,,0.00,VWS V15.00,2015-08-02 23:43:00,
2015-08-02 19:48:00,83.6,65.7,29.84,SW,216,0.0,1.0,55,0.00,,,0.00,VWS V15.00,2015-08-02 23:48:00,
2015-08-02 19:53:00,83.5,65.7,29.84,SW,215,0.0,1.0,55,0.00,,,0.00,VWS V15.00,2015-08-02 23:53:00,
2015-08-02 19:58:00,83.4,65.6,29.84,SW,215,0.0,0.0,55,0.00,,,0.00,VWS V15.00,2015-08-02 23:58:00,
2015-08-02 20:03:00,83.2,65.4,29.84,SW,220,0.0,1.0,55,0.00,,,0.00,VWS V15.00,2015-08-03 00:03:00,
2015-08-02 20:08:00,82.9,65.6,29.84,SW,217,0.0,0.0,56,0.00,,,0.00,VWS V15.00,2015-08-03 00:08:00,
2015-08-02 20:13:00,82.6,65.3,29.83,SW,218,0.0,3.0,56,0.00,,,0.00,VWS V15.00,2015-08-03 00:13:00,
2015-08-02 20:18:00,82.3,65.6,29.84,SW,218,0.0,0.0,57,0.00,,,0.00,VWS V15.00,2015-08-03 00:18:00,
2015-08-02 20:23:00,81.9,65.7,29.84,SW,218,0.0,0.0,58,0.00,,,0.00,VWS V15.00,2015-08-03 00:23:00,
2015-08-02 20:28:00,81.6,65.9,29.83,SW,218,0.0,0.0,59,0.00,,,0.00,VWS V15.00,2015-08-03 00:28:00,
2015-08-02 20:33:00,81.2,66.0,29.83,SSW,209,0.0,1.0,60,0.00,,,0.00,VWS V15.00,2015-08-03 00:33:00,
2015-08-02 20:38:00,80.7,65.5,29.83,SSW,201,0.0,0.0,60,0.00,,,0.00,VWS V15.00,2015-08-03 00:38:00,